createdAt,value
2022-09-20T00:01:28.172Z,15.40
2022-09-20T00:03:58.408Z,15.40
2022-09-20T00:06:27.346Z,15.30
2022-09-20T00:08:54.391Z,15.30
2022-09-20T00:11:26.006Z,15.20
2022-09-20T00:13:54.539Z,15.10
2022-09-20T00:16:29.308Z,15.10
2022-09-20T00:18:56.923Z,15.00
2022-09-20T00:21:25.678Z,14.90
2022-09-20T00:23:52.762Z,14.90
2022-09-20T00:26:19.566Z,14.80
2022-09-20T00:28:47.177Z,14.80
2022-09-20T00:31:15.421Z,14.70
2022-09-20T00:34:00.799Z,14.60
2022-09-20T00:36:27.519Z,14.50
2022-09-20T00:38:58.263Z,14.50
2022-09-20T00:41:25.103Z,14.50
2022-09-20T00:43:52.034Z,14.50
2022-09-20T00:46:38.906Z,14.40
2022-09-20T00:49:17.556Z,14.40
2022-09-20T00:51:47.437Z,14.30
2022-09-20T00:54:19.486Z,14.30
2022-09-20T00:56:47.266Z,14.20
2022-09-20T00:59:30.236Z,14.20
2022-09-20T01:02:18.950Z,14.20
2022-09-20T01:04:45.843Z,14.20
2022-09-20T01:07:14.120Z,14.10
2022-09-20T01:09:40.863Z,14.00
2022-09-20T01:12:12.303Z,14.00
2022-09-20T01:14:39.676Z,13.90
2022-09-20T01:17:06.477Z,13.90
2022-09-20T01:19:56.707Z,13.90
2022-09-20T01:22:26.908Z,13.90
2022-09-20T01:25:08.734Z,13.90
2022-09-20T01:27:54.107Z,13.90
2022-09-20T01:30:25.363Z,13.80
2022-09-20T01:32:55.822Z,13.70
2022-09-20T01:35:23.077Z,13.60
2022-09-20T01:38:08.671Z,13.60
2022-09-20T01:40:47.754Z,13.50
2022-09-20T01:43:33.180Z,13.50
2022-09-20T01:46:01.924Z,13.50
2022-09-20T01:48:36.032Z,13.40
2022-09-20T01:51:31.174Z,13.30
2022-09-20T01:54:03.323Z,13.30
2022-09-20T01:56:58.140Z,13.30
2022-09-20T01:59:49.055Z,13.30
2022-09-20T02:02:24.542Z,13.20
2022-09-20T02:05:18.584Z,13.20
2022-09-20T02:08:10.195Z,13.20
2022-09-20T02:10:55.195Z,13.20
2022-09-20T02:13:40.000Z,13.20
2022-09-20T02:16:20.783Z,13.20
2022-09-20T02:19:09.937Z,13.30
2022-09-20T02:21:47.149Z,13.30
2022-09-20T02:24:38.184Z,13.20
2022-09-20T02:27:14.062Z,13.20
2022-09-20T02:30:04.750Z,13.20
2022-09-20T02:32:34.496Z,13.30
2022-09-20T02:35:16.077Z,13.30
2022-09-20T02:38:31.110Z,13.30
2022-09-20T02:41:26.953Z,13.30
2022-09-20T02:44:15.223Z,13.40
2022-09-20T02:46:48.118Z,13.30
2022-09-20T02:49:45.910Z,13.40
2022-09-20T02:52:16.851Z,13.40
2022-09-20T02:58:57.794Z,13.30
2022-09-20T03:01:24.507Z,13.30
2022-09-20T03:04:00.172Z,13.30
2022-09-20T03:06:36.031Z,13.30
2022-09-20T03:09:29.461Z,13.30
2022-09-20T03:12:05.376Z,13.30
2022-09-20T03:14:37.997Z,13.30
2022-09-20T03:17:19.943Z,13.30
2022-09-20T03:20:07.961Z,13.20
2022-09-20T03:22:52.773Z,13.00
2022-09-20T03:25:38.153Z,13.00
2022-09-20T03:28:15.340Z,13.00
2022-09-20T03:31:03.669Z,13.10
2022-09-20T03:33:39.229Z,13.20
2022-09-20T03:36:30.401Z,13.20
2022-09-20T03:39:26.483Z,13.20
2022-09-20T03:42:19.150Z,13.20
2022-09-20T03:44:48.603Z,13.20
2022-09-20T03:47:15.448Z,13.20
2022-09-20T03:49:53.207Z,13.20
2022-09-20T03:52:43.798Z,13.20
2022-09-20T03:55:32.644Z,13.20
2022-09-20T03:58:24.669Z,13.20
2022-09-20T04:01:34.077Z,13.20
2022-09-20T04:04:08.342Z,13.20
2022-09-20T04:06:48.901Z,13.20
2022-09-20T04:09:34.102Z,13.10
2022-09-20T04:12:26.927Z,13.10
2022-09-20T04:15:16.196Z,13.10
2022-09-20T04:17:52.527Z,13.00
2022-09-20T04:20:42.774Z,13.00
2022-09-20T04:23:37.442Z,12.90
2022-09-20T04:26:04.103Z,12.80
2022-09-20T04:28:41.481Z,12.80
2022-09-20T04:31:23.811Z,12.70
2022-09-20T04:33:50.753Z,12.70
2022-09-20T04:36:33.460Z,12.70
2022-09-20T04:39:03.550Z,12.60
2022-09-20T04:42:08.553Z,12.60
2022-09-20T04:45:23.827Z,12.60
2022-09-20T04:47:55.585Z,12.50
2022-09-20T04:50:41.052Z,12.50
2022-09-20T04:53:19.712Z,12.40
2022-09-20T04:56:22.731Z,12.40
2022-09-20T04:59:08.872Z,12.30
2022-09-20T05:02:13.701Z,12.20
2022-09-20T05:04:43.358Z,12.10
2022-09-20T05:07:25.924Z,12.00
2022-09-20T05:10:15.380Z,12.00
2022-09-20T05:13:05.736Z,12.00
2022-09-20T05:15:44.818Z,11.90
2022-09-20T05:18:41.023Z,11.90
2022-09-20T05:21:08.282Z,11.80
2022-09-20T05:23:52.682Z,11.80
2022-09-20T05:26:39.541Z,11.80
2022-09-20T05:29:29.507Z,11.70
2022-09-20T05:31:58.947Z,11.70
2022-09-20T05:34:58.370Z,11.70
2022-09-20T05:37:44.234Z,11.70
2022-09-20T05:40:13.847Z,11.60
2022-09-20T05:42:50.097Z,11.50
2022-09-20T05:45:38.263Z,11.50
2022-09-20T05:48:18.175Z,11.40
2022-09-20T05:51:13.967Z,11.40
2022-09-20T05:54:18.364Z,11.40
2022-09-20T05:56:47.554Z,11.40
2022-09-20T05:59:25.703Z,11.40
2022-09-20T06:02:29.992Z,11.40
2022-09-20T06:04:56.987Z,11.40
2022-09-20T06:07:39.821Z,11.40
2022-09-20T06:10:39.841Z,11.40
2022-09-20T06:13:31.470Z,11.40
2022-09-20T06:16:00.330Z,11.40
2022-09-20T06:19:10.792Z,11.40
2022-09-20T06:21:53.043Z,11.40
2022-09-20T06:24:41.776Z,11.40
2022-09-20T06:27:18.876Z,11.50
2022-09-20T06:29:49.843Z,11.60
2022-09-20T06:32:17.549Z,11.60
2022-09-20T06:34:44.280Z,11.70
2022-09-20T06:37:59.888Z,11.60
2022-09-20T06:41:07.446Z,11.70
2022-09-20T06:43:36.372Z,11.70
2022-09-20T06:46:03.183Z,11.80
2022-09-20T06:48:31.511Z,11.90
2022-09-20T06:50:58.891Z,12.00
2022-09-20T06:53:30.718Z,12.00
2022-09-20T06:55:57.748Z,12.10
2022-09-20T06:58:24.719Z,12.10
2022-09-20T07:00:51.734Z,12.10
2022-09-20T07:03:19.592Z,12.10
2022-09-20T07:05:46.899Z,12.20
2022-09-20T07:08:13.874Z,12.30
2022-09-20T07:10:41.198Z,12.30
2022-09-20T07:13:11.183Z,12.30
2022-09-20T07:15:38.036Z,12.30
2022-09-20T07:18:04.822Z,12.40
2022-09-20T07:20:31.524Z,12.50
2022-09-20T07:22:58.246Z,12.50
2022-09-20T07:25:25.009Z,12.60
2022-09-20T07:27:51.821Z,12.70
2022-09-20T07:30:19.211Z,12.80
2022-09-20T07:32:46.088Z,12.90
2022-09-20T07:35:12.892Z,12.90
2022-09-20T07:37:42.735Z,13.00
2022-09-20T07:40:10.781Z,13.00
2022-09-20T07:42:37.900Z,13.10
2022-09-20T07:45:05.086Z,13.20
2022-09-20T07:47:35.235Z,13.20
2022-09-20T07:50:02.829Z,13.30
2022-09-20T07:52:29.607Z,13.40
2022-09-20T07:54:56.582Z,13.50
2022-09-20T07:57:25.094Z,13.60
2022-09-20T07:59:51.949Z,13.60
2022-09-20T08:02:18.780Z,13.70
2022-09-20T08:04:45.765Z,13.80
2022-09-20T08:07:12.734Z,13.90
2022-09-20T08:09:39.551Z,14.00
2022-09-20T08:14:55.481Z,14.20
2022-09-20T08:17:22.916Z,14.20
2022-09-20T08:19:50.614Z,14.30
2022-09-20T08:22:17.700Z,14.30
2022-09-20T08:24:44.502Z,14.40
2022-09-20T08:27:11.850Z,14.50
2022-09-20T08:29:38.853Z,14.70
2022-09-20T08:32:05.720Z,14.80
2022-09-20T08:34:32.460Z,14.80
2022-09-20T08:36:59.483Z,14.90
2022-09-20T08:42:37.936Z,15.00
2022-09-20T08:45:34.379Z,15.10
2022-09-20T08:48:05.531Z,15.20
2022-09-20T08:50:34.642Z,15.30
2022-09-20T08:53:04.885Z,15.40
2022-09-20T08:55:40.179Z,15.50
2022-09-20T08:58:09.669Z,15.60
2022-09-20T09:00:37.196Z,15.70
2022-09-20T09:03:11.236Z,15.80
2022-09-20T09:05:46.392Z,16.00
2022-09-20T09:08:16.645Z,16.30
2022-09-20T09:10:47.929Z,16.60
2022-09-20T09:13:32.059Z,16.60
2022-09-20T09:16:22.507Z,16.70
2022-09-20T09:18:53.133Z,16.70
2022-09-20T09:21:23.851Z,16.80
2022-09-20T09:23:52.100Z,17.00
2022-09-20T09:26:21.302Z,17.10
2022-09-20T09:29:04.548Z,17.20
2022-09-20T09:31:31.455Z,17.20
2022-09-20T09:33:58.238Z,17.20
2022-09-20T09:36:25.942Z,17.10
2022-09-20T09:39:16.590Z,17.10
2022-09-20T09:41:44.370Z,17.20
2022-09-20T09:44:21.621Z,17.20
2022-09-20T09:46:50.404Z,17.20
2022-09-20T09:49:22.281Z,17.20
2022-09-20T09:52:24.817Z,17.20
2022-09-20T09:55:03.843Z,17.20
2022-09-20T09:57:37.850Z,17.20
2022-09-20T10:00:19.743Z,17.30
2022-09-20T10:03:12.790Z,17.40
2022-09-20T10:06:01.837Z,17.40
2022-09-20T10:08:37.686Z,17.50
2022-09-20T10:11:07.195Z,17.60
2022-09-20T10:13:59.134Z,17.60
2022-09-20T10:16:38.401Z,17.70
2022-09-20T10:19:11.143Z,17.80
2022-09-20T10:22:01.895Z,17.90
2022-09-20T10:24:44.458Z,17.90
2022-09-20T10:27:43.727Z,18.00
2022-09-20T10:30:17.035Z,17.90
2022-09-20T10:33:12.692Z,17.80
2022-09-20T10:35:45.337Z,17.90
2022-09-20T10:38:30.817Z,18.00
2022-09-20T10:41:35.229Z,18.00
2022-09-20T10:44:46.741Z,18.10
2022-09-20T10:47:21.477Z,18.20
2022-09-20T10:50:05.063Z,18.30
2022-09-20T10:52:56.962Z,18.30
2022-09-20T10:55:32.470Z,18.40
2022-09-20T10:58:26.886Z,18.30
2022-09-20T11:01:18.841Z,18.30
2022-09-20T11:04:00.428Z,18.20
2022-09-20T11:06:50.818Z,18.20
2022-09-20T11:09:25.123Z,18.20
2022-09-20T11:12:42.675Z,18.30
2022-09-20T11:15:21.380Z,18.40
2022-09-20T11:17:59.761Z,18.50
2022-09-20T11:20:44.311Z,18.70
2022-09-20T11:23:28.274Z,18.90
2022-09-20T11:26:02.051Z,19.00
2022-09-20T11:28:36.442Z,19.00
2022-09-20T11:31:23.663Z,18.80
2022-09-20T11:34:08.405Z,18.90
2022-09-20T11:36:58.913Z,18.90
2022-09-20T11:39:29.155Z,18.90
2022-09-20T11:41:56.842Z,18.90
2022-09-20T11:44:23.734Z,18.90
2022-09-20T11:47:03.943Z,18.90
2022-09-20T11:50:08.600Z,19.10
2022-09-20T11:52:53.280Z,19.00
2022-09-20T11:55:29.059Z,19.10
2022-09-20T11:58:10.403Z,19.20
2022-09-20T12:00:41.490Z,19.20
2022-09-20T12:03:23.300Z,19.20
2022-09-20T12:05:57.657Z,19.20
2022-09-20T12:08:39.057Z,19.20
2022-09-20T12:11:14.168Z,19.40
2022-09-20T12:13:42.577Z,19.60
2022-09-20T12:16:18.214Z,19.60
2022-09-20T12:18:54.037Z,19.60
2022-09-20T12:21:22.444Z,19.70
2022-09-20T12:23:55.485Z,19.80
2022-09-20T12:26:23.129Z,19.80
2022-09-20T12:28:59.257Z,19.80
2022-09-20T12:31:26.506Z,19.70
2022-09-20T12:34:27.201Z,19.80
2022-09-20T12:36:53.944Z,19.80
2022-09-20T12:39:30.563Z,19.80
2022-09-20T12:42:12.707Z,19.80
2022-09-20T12:44:42.993Z,19.80
2022-09-20T12:47:12.590Z,19.70
2022-09-20T12:50:07.900Z,19.70
2022-09-20T12:53:02.293Z,19.70
2022-09-20T12:55:46.458Z,19.70
2022-09-20T12:58:15.272Z,19.90
2022-09-20T13:00:47.840Z,19.90
2022-09-20T13:03:25.041Z,20.00
2022-09-20T13:06:15.614Z,20.00
2022-09-20T13:09:00.926Z,20.10
2022-09-20T13:11:52.493Z,20.20
2022-09-20T13:14:26.842Z,20.50
2022-09-20T13:17:09.411Z,20.50
2022-09-20T13:19:39.043Z,20.60
2022-09-20T13:22:20.587Z,20.50
2022-09-20T13:24:48.999Z,20.30
2022-09-20T13:27:30.800Z,20.20
2022-09-20T13:30:20.547Z,20.20
2022-09-20T13:32:48.075Z,20.30
2022-09-20T13:35:14.954Z,20.40
2022-09-20T13:37:52.491Z,20.50
2022-09-20T13:40:42.819Z,20.70
2022-09-20T13:43:40.991Z,20.70
2022-09-20T13:46:16.430Z,20.70
2022-09-20T13:48:46.181Z,20.70
2022-09-20T13:51:26.666Z,20.80
2022-09-20T13:53:53.718Z,21.00
2022-09-20T13:56:28.625Z,21.10
2022-09-20T13:58:58.767Z,21.20
2022-09-20T14:01:29.479Z,21.20
2022-09-20T14:04:01.427Z,21.20
2022-09-20T14:06:29.749Z,21.30
2022-09-20T14:08:56.824Z,21.20
2022-09-20T14:11:27.993Z,21.10
2022-09-20T14:13:56.776Z,21.10
2022-09-20T14:16:31.074Z,21.10
2022-09-20T14:18:59.137Z,21.10
2022-09-20T14:21:31.857Z,21.20
2022-09-20T14:24:06.400Z,21.30
2022-09-20T14:26:34.830Z,21.20
2022-09-20T14:29:32.191Z,21.20
2022-09-20T14:32:00.393Z,21.10
2022-09-20T14:34:27.256Z,21.00
2022-09-20T14:37:07.761Z,21.10
2022-09-20T14:39:34.977Z,21.10
2022-09-20T14:42:01.861Z,21.30
2022-09-20T14:44:33.053Z,21.40
2022-09-20T14:47:00.196Z,21.50
2022-09-20T14:49:26.961Z,21.40
2022-09-20T14:51:54.071Z,21.30
2022-09-20T14:54:30.685Z,21.20
2022-09-20T14:56:58.496Z,21.10
2022-09-20T14:59:35.487Z,21.00
2022-09-20T15:02:21.229Z,21.00
2022-09-20T15:04:55.956Z,21.20
2022-09-20T15:07:22.718Z,21.20
2022-09-20T15:09:49.558Z,21.10
2022-09-20T15:12:17.951Z,21.00
2022-09-20T15:14:45.176Z,20.90
2022-09-20T15:17:21.535Z,20.80
2022-09-20T15:19:48.821Z,20.70
2022-09-20T15:22:15.751Z,20.60
2022-09-20T15:24:42.977Z,20.60
2022-09-20T15:27:13.166Z,20.60
2022-09-20T15:29:40.076Z,20.60
2022-09-20T15:32:06.896Z,20.50
2022-09-20T15:34:33.697Z,20.60
2022-09-20T15:37:00.585Z,21.60
2022-09-20T15:39:27.987Z,22.10
2022-09-20T15:41:54.741Z,22.10
2022-09-20T15:44:21.444Z,21.80
2022-09-20T15:46:49.896Z,21.50
2022-09-20T15:49:16.702Z,21.20
2022-09-20T15:51:43.511Z,20.90
2022-09-20T15:54:11.509Z,20.70
2022-09-20T15:56:40.480Z,20.60
2022-09-20T15:59:08.692Z,20.40
2022-09-20T16:01:37.627Z,20.30
2022-09-20T16:04:12.057Z,20.10
2022-09-20T16:06:39.637Z,20.10
2022-09-20T16:09:07.542Z,20.00
2022-09-20T16:11:34.380Z,19.90
2022-09-20T16:14:01.265Z,19.80
2022-09-20T16:16:29.231Z,19.70
2022-09-20T16:19:14.973Z,19.60
2022-09-20T16:21:42.787Z,19.50
2022-09-20T16:24:09.695Z,19.50
2022-09-20T16:26:36.792Z,19.40
2022-09-20T16:29:11.572Z,19.40
2022-09-20T16:31:41.997Z,19.40
2022-09-20T16:34:17.157Z,19.30
2022-09-20T16:36:44.420Z,19.30
2022-09-20T16:39:11.785Z,19.30
2022-09-20T16:41:39.714Z,19.30
2022-09-20T16:44:06.916Z,19.30
2022-09-20T16:46:37.236Z,19.30
2022-09-20T16:49:09.474Z,19.20
2022-09-20T16:51:37.550Z,19.20
2022-09-20T16:54:06.819Z,19.10
2022-09-20T16:56:34.654Z,19.10
2022-09-20T16:59:02.222Z,19.10
2022-09-20T17:01:29.855Z,19.00
2022-09-20T17:03:56.973Z,19.00
2022-09-20T17:06:23.861Z,19.00
2022-09-20T17:08:58.686Z,19.00
2022-09-20T17:11:28.523Z,19.00
2022-09-20T17:13:55.490Z,18.90
2022-09-20T17:16:27.717Z,18.90
2022-09-20T17:18:56.534Z,18.90
2022-09-20T17:21:23.480Z,18.90
2022-09-20T17:23:55.025Z,18.90
2022-09-20T17:26:31.502Z,18.90
2022-09-20T17:28:58.368Z,18.90
2022-09-20T17:31:33.838Z,18.90
2022-09-20T17:34:07.189Z,18.90
2022-09-20T17:36:36.529Z,18.90
2022-09-20T17:39:04.601Z,18.90
2022-09-20T17:41:32.535Z,18.80
2022-09-20T17:44:00.290Z,18.80
2022-09-20T17:46:31.628Z,18.80
2022-09-20T17:49:03.744Z,18.80
2022-09-20T17:51:32.058Z,18.80
2022-09-20T17:53:59.160Z,18.70
2022-09-20T17:56:29.496Z,18.70
2022-09-20T17:58:57.111Z,18.70
2022-09-20T18:01:25.957Z,18.60
2022-09-20T18:03:53.129Z,18.60
2022-09-20T18:06:24.786Z,18.60
2022-09-20T18:08:56.362Z,18.50
2022-09-20T18:11:29.168Z,18.50
2022-09-20T18:13:56.038Z,18.40
2022-09-20T18:16:23.762Z,18.40
2022-09-20T18:18:50.988Z,18.30
2022-09-20T18:21:19.457Z,18.30
2022-09-20T18:23:46.445Z,18.20
2022-09-20T18:26:24.393Z,18.10
2022-09-20T18:29:02.036Z,18.10
2022-09-20T18:31:37.096Z,18.00
2022-09-20T18:34:07.840Z,18.00
2022-09-20T18:36:36.191Z,17.90
2022-09-20T18:39:03.477Z,17.90
2022-09-20T18:41:36.916Z,17.80
2022-09-20T18:44:04.747Z,17.80
2022-09-20T18:46:31.757Z,17.70
2022-09-20T18:49:03.176Z,17.70
2022-09-20T18:51:30.069Z,17.60
2022-09-20T18:53:57.333Z,17.60
2022-09-20T18:56:24.342Z,17.60
2022-09-20T18:58:55.257Z,17.50
2022-09-20T19:01:28.345Z,17.50
2022-09-20T19:04:14.169Z,17.50
2022-09-20T19:06:47.334Z,17.50
2022-09-20T19:09:31.555Z,17.40
2022-09-20T19:12:07.095Z,17.40
2022-09-20T19:15:13.371Z,17.40
2022-09-20T19:18:09.208Z,17.40
2022-09-20T19:20:42.052Z,17.40
2022-09-20T19:23:14.566Z,17.40
2022-09-20T19:25:44.149Z,17.40
2022-09-20T19:28:11.776Z,17.40
2022-09-20T19:30:40.498Z,17.40
2022-09-20T19:33:16.901Z,17.40
2022-09-20T19:35:51.418Z,17.30
2022-09-20T19:38:37.511Z,17.30
2022-09-20T19:41:14.270Z,17.30
2022-09-20T19:43:54.748Z,17.30
2022-09-20T19:46:45.580Z,17.30
2022-09-20T19:49:27.819Z,17.20
2022-09-20T19:51:57.804Z,17.20
2022-09-20T19:54:24.908Z,17.20
2022-09-20T19:56:55.797Z,17.20
2022-09-20T19:59:23.114Z,17.10
2022-09-20T20:01:50.385Z,17.10
2022-09-20T20:04:17.515Z,17.10
2022-09-20T20:07:04.988Z,17.10
2022-09-20T20:09:43.282Z,17.10
2022-09-20T20:12:29.191Z,17.00
2022-09-20T20:15:22.052Z,17.00
2022-09-20T20:18:15.869Z,17.00
2022-09-20T20:20:48.539Z,16.90
2022-09-20T20:23:37.488Z,16.90
2022-09-20T20:26:16.676Z,16.90
2022-09-20T20:28:43.698Z,16.80
2022-09-20T20:31:13.453Z,16.80
2022-09-20T20:33:40.590Z,16.80
2022-09-20T20:36:11.791Z,16.80
2022-09-20T20:38:40.418Z,16.70
2022-09-20T20:41:12.898Z,16.70
2022-09-20T20:43:41.164Z,16.70
2022-09-20T20:46:12.284Z,16.70
2022-09-20T20:48:39.255Z,16.60
2022-09-20T20:51:09.573Z,16.60
2022-09-20T20:53:47.798Z,16.60
2022-09-20T20:56:25.923Z,16.70
2022-09-20T20:58:53.071Z,16.60
2022-09-20T21:01:21.622Z,16.60
2022-09-20T21:03:50.112Z,16.50
2022-09-20T21:06:17.272Z,16.50
2022-09-20T21:08:49.054Z,16.40
2022-09-20T21:11:20.449Z,16.40
2022-09-20T21:13:48.448Z,16.40
2022-09-20T21:16:17.809Z,16.30
2022-09-20T21:18:46.029Z,16.30
2022-09-20T21:21:16.528Z,16.20
2022-09-20T21:23:43.773Z,16.20
2022-09-20T21:26:12.673Z,16.20
2022-09-20T21:28:41.303Z,16.10
2022-09-20T21:31:08.899Z,16.20
2022-09-20T21:33:37.177Z,16.20
2022-09-20T21:36:07.831Z,16.10
2022-09-20T21:38:34.759Z,16.10
2022-09-20T21:41:22.143Z,16.00
2022-09-20T21:43:52.214Z,16.00
2022-09-20T21:46:32.596Z,15.90
2022-09-20T21:49:04.728Z,15.90
2022-09-20T21:51:34.848Z,15.80
2022-09-20T21:54:02.065Z,15.70
2022-09-20T21:56:31.257Z,15.70
2022-09-20T21:59:03.687Z,15.60
2022-09-20T22:01:35.057Z,15.60
2022-09-20T22:04:05.596Z,15.60
2022-09-20T22:06:39.198Z,15.60
2022-09-20T22:09:10.722Z,15.50
2022-09-20T22:11:39.204Z,15.50
2022-09-20T22:14:06.461Z,15.40
2022-09-20T22:16:34.753Z,15.40
2022-09-20T22:19:02.297Z,15.40
2022-09-20T22:21:33.697Z,15.40
2022-09-20T22:24:05.189Z,15.40
2022-09-20T22:26:34.176Z,15.40
2022-09-20T22:29:02.585Z,15.40
2022-09-20T22:31:30.860Z,15.40
2022-09-20T22:33:59.869Z,15.40
2022-09-20T22:36:37.586Z,15.40
2022-09-20T22:39:07.595Z,15.30
2022-09-20T22:41:34.849Z,15.30
2022-09-20T22:44:01.918Z,15.30
2022-09-20T22:46:29.313Z,15.30
2022-09-20T22:48:58.716Z,15.40
2022-09-20T22:51:27.629Z,15.40
2022-09-20T22:53:54.607Z,15.40
2022-09-20T22:56:25.071Z,15.40
2022-09-20T22:58:53.521Z,15.40
2022-09-20T23:01:24.887Z,15.40
2022-09-20T23:04:07.607Z,15.40
2022-09-20T23:06:39.328Z,15.40
2022-09-20T23:09:08.218Z,15.40
2022-09-20T23:11:35.381Z,15.40
2022-09-20T23:14:04.857Z,15.40
2022-09-20T23:16:34.420Z,15.40
2022-09-20T23:19:01.817Z,15.40
2022-09-20T23:21:28.972Z,15.40
2022-09-20T23:24:00.106Z,15.40
2022-09-20T23:26:27.434Z,15.40
2022-09-20T23:28:56.268Z,15.30
2022-09-20T23:31:23.125Z,15.30
2022-09-20T23:33:57.344Z,15.30
2022-09-20T23:36:24.479Z,15.30
2022-09-20T23:38:51.267Z,15.20
2022-09-20T23:41:22.432Z,15.20
2022-09-20T23:43:49.556Z,15.20
2022-09-20T23:46:17.253Z,15.10
2022-09-20T23:48:44.290Z,15.20
2022-09-20T23:51:12.764Z,15.20
2022-09-20T23:53:39.553Z,15.10
2022-09-20T23:56:06.461Z,15.10
2022-09-20T23:58:33.926Z,15.10
